Witts Springs, Arkansas
Current Conditions -  °F | °C
As of 9:53 AM on Wednesday 22 Oct 2014 (Local Time) from KHRO Reporting Station
Clear Clear  
Wind Chill: 53°   Ceiling: Unl
Heat Index: 53°   Visibility: 10mi
Dew Point: 48°   Wind: 9mph
Humidity: 83%   Direction: 110°ESE
Pressure: 30.27"   Gusts: NA
Location:  35.77°N, 92.87°W
Report Text: KHRO 221453Z AUTO 11008KT 10SM CLR 12/09 A3027 RMK AO2 SLP247 T01170089 51021
Loading
Personal Weather Stations






























Interactive Weather Map
Tropical Storm Tracking
New forecast layout! Learn more

10-Day Weather Forecast

Advertisements
Track Severe Weather on mobile